Terminal Aerodrome Forecast
Issued by NWS

Home | Current Version | Previous Version | Graphics & Text | Print | Product List | Glossary On
Versions: 1 2 3 4 5 6 7 8 9 10 11 12 13 14 15 16 17 18 19 20 21 22 23 24 25
000
FTUS43 KABR 290500
TAFATY
TAF
KATY 290522Z 2906/3006 18018G27KT P6SM OVC200
     FM290800 23017G28KT P6SM VCSH OVC040
     FM291300 32027G40KT P6SM SCT050
     FM292000 32019G26KT P6SM SKC
     FM300100 VRB05KT P6SM SKC=

USA.gov is the U.S. government's official web portal to all federal, state and local government web resources and services.